sensor_id;sensor_type;location;lat;lon;timestamp;P1;durP1;ratioP1;P2;durP2;ratioP2
71127;SDS011;59249;59.736;30.568;2024-02-23T00:00:18;15.73;;;6.17;;
71127;SDS011;59249;59.736;30.568;2024-02-23T00:02:56;16.02;;;5.53;;
71127;SDS011;59249;59.736;30.568;2024-02-23T00:05:28;15.70;;;6.05;;
71127;SDS011;59249;59.736;30.568;2024-02-23T00:07:58;15.65;;;5.90;;
71127;SDS011;59249;59.736;30.568;2024-02-23T00:10:29;14.80;;;6.22;;
71127;SDS011;59249;59.736;30.568;2024-02-23T00:13:01;18.47;;;6.70;;
71127;SDS011;59249;59.736;30.568;2024-02-23T00:15:32;14.15;;;5.47;;
71127;SDS011;59249;59.736;30.568;2024-02-23T00:18:03;15.32;;;6.20;;
71127;SDS011;59249;59.736;30.568;2024-02-23T00:20:37;11.90;;;4.30;;
71127;SDS011;59249;59.736;30.568;2024-02-23T00:23:07;13.32;;;5.15;;
71127;SDS011;59249;59.736;30.568;2024-02-23T00:25:41;15.37;;;5.57;;
71127;SDS011;59249;59.736;30.568;2024-02-23T00:28:22;8.43;;;3.40;;
71127;SDS011;59249;59.736;30.568;2024-02-23T00:30:56;11.70;;;4.85;;
71127;SDS011;59249;59.736;30.568;2024-02-23T00:33:38;13.95;;;5.38;;
71127;SDS011;59249;59.736;30.568;2024-02-23T00:36:17;13.75;;;5.15;;
71127;SDS011;59249;59.736;30.568;2024-02-23T00:38:50;14.73;;;4.80;;
71127;SDS011;59249;59.736;30.568;2024-02-23T00:41:28;16.13;;;5.93;;
71127;SDS011;59249;59.736;30.568;2024-02-23T00:44:03;15.10;;;6.00;;
71127;SDS011;59249;59.736;30.568;2024-02-23T00:46:41;15.43;;;5.53;;
71127;SDS011;59249;59.736;30.568;2024-02-23T00:49:23;16.48;;;5.63;;
71127;SDS011;59249;59.736;30.568;2024-02-23T00:52:01;14.40;;;6.17;;
71127;SDS011;59249;59.736;30.568;2024-02-23T00:54:36;16.30;;;5.78;;
71127;SDS011;59249;59.736;30.568;2024-02-23T00:57:05;14.48;;;5.88;;
71127;SDS011;59249;59.736;30.568;2024-02-23T00:59:46;16.73;;;6.28;;
71127;SDS011;59249;59.736;30.568;2024-02-23T01:02:16;12.60;;;5.18;;
71127;SDS011;59249;59.736;30.568;2024-02-23T01:04:49;16.47;;;5.17;;
71127;SDS011;59249;59.736;30.568;2024-02-23T01:07:30;14.77;;;5.32;;
71127;SDS011;59249;59.736;30.568;2024-02-23T01:10:01;14.10;;;5.75;;
71127;SDS011;59249;59.736;30.568;2024-02-23T01:12:37;16.63;;;5.53;;
71127;SDS011;59249;59.736;30.568;2024-02-23T01:15:15;13.65;;;5.20;;
71127;SDS011;59249;59.736;30.568;2024-02-23T01:17:49;14.67;;;5.77;;
71127;SDS011;59249;59.736;30.568;2024-02-23T01:20:24;14.00;;;4.80;;
71127;SDS011;59249;59.736;30.568;2024-02-23T01:22:54;14.30;;;6.45;;
71127;SDS011;59249;59.736;30.568;2024-02-23T01:25:24;14.65;;;5.45;;
71127;SDS011;59249;59.736;30.568;2024-02-23T01:27:53;17.85;;;6.30;;
71127;SDS011;59249;59.736;30.568;2024-02-23T01:30:33;17.10;;;5.83;;
71127;SDS011;59249;59.736;30.568;2024-02-23T01:33:15;15.02;;;6.00;;
71127;SDS011;59249;59.736;30.568;2024-02-23T01:35:53;18.13;;;6.47;;
71127;SDS011;59249;59.736;30.568;2024-02-23T01:38:24;14.90;;;5.70;;
71127;SDS011;59249;59.736;30.568;2024-02-23T01:41:01;15.48;;;5.95;;
71127;SDS011;59249;59.736;30.568;2024-02-23T01:43:50;10.00;;;3.90;;
71127;SDS011;59249;59.736;30.568;2024-02-23T01:46:22;13.13;;;4.28;;
71127;SDS011;59249;59.736;30.568;2024-02-23T01:49:01;14.20;;;5.70;;
71127;SDS011;59249;59.736;30.568;2024-02-23T01:54:30;14.00;;;5.45;;
71127;SDS011;59249;59.736;30.568;2024-02-23T01:57:01;16.07;;;6.27;;
71127;SDS011;59249;59.736;30.568;2024-02-23T01:59:53;16.38;;;6.80;;
71127;SDS011;59249;59.736;30.568;2024-02-23T02:02:24;16.58;;;6.55;;
71127;SDS011;59249;59.736;30.568;2024-02-23T02:05:01;16.80;;;6.03;;
71127;SDS011;59249;59.736;30.568;2024-02-23T02:07:57;16.98;;;6.00;;
71127;SDS011;59249;59.736;30.568;2024-02-23T02:10:42;11.00;;;4.50;;
71127;SDS011;59249;59.736;30.568;2024-02-23T02:13:16;13.32;;;4.78;;
71127;SDS011;59249;59.736;30.568;2024-02-23T02:15:47;14.82;;;5.32;;
71127;SDS011;59249;59.736;30.568;2024-02-23T02:18:16;9.68;;;3.30;;
71127;SDS011;59249;59.736;30.568;2024-02-23T02:20:50;12.18;;;4.75;;
71127;SDS011;59249;59.736;30.568;2024-02-23T02:23:29;21.70;;;6.13;;
71127;SDS011;59249;59.736;30.568;2024-02-23T02:26:00;16.00;;;5.40;;
71127;SDS011;59249;59.736;30.568;2024-02-23T02:28:30;10.63;;;3.97;;
71127;SDS011;59249;59.736;30.568;2024-02-23T02:31:05;12.38;;;5.53;;
71127;SDS011;59249;59.736;30.568;2024-02-23T02:33:39;20.13;;;7.25;;
71127;SDS011;59249;59.736;30.568;2024-02-23T02:36:09;16.37;;;6.03;;
71127;SDS011;59249;59.736;30.568;2024-02-23T02:38:41;18.70;;;6.85;;
71127;SDS011;59249;59.736;30.568;2024-02-23T02:41:10;15.68;;;5.68;;
71127;SDS011;59249;59.736;30.568;2024-02-23T02:43:46;14.95;;;5.38;;
71127;SDS011;59249;59.736;30.568;2024-02-23T02:46:15;18.02;;;6.55;;
71127;SDS011;59249;59.736;30.568;2024-02-23T02:48:45;18.33;;;6.80;;
71127;SDS011;59249;59.736;30.568;2024-02-23T02:51:17;17.58;;;5.35;;
71127;SDS011;59249;59.736;30.568;2024-02-23T02:53:50;15.57;;;6.55;;
71127;SDS011;59249;59.736;30.568;2024-02-23T02:56:19;19.85;;;7.70;;
71127;SDS011;59249;59.736;30.568;2024-02-23T02:58:48;18.60;;;7.20;;
71127;SDS011;59249;59.736;30.568;2024-02-23T03:01:18;16.50;;;6.57;;
71127;SDS011;59249;59.736;30.568;2024-02-23T03:03:47;20.20;;;7.05;;
71127;SDS011;59249;59.736;30.568;2024-02-23T03:06:18;16.85;;;6.72;;
71127;SDS011;59249;59.736;30.568;2024-02-23T03:08:51;16.40;;;6.70;;
71127;SDS011;59249;59.736;30.568;2024-02-23T03:11:24;15.90;;;5.80;;
71127;SDS011;59249;59.736;30.568;2024-02-23T03:13:58;19.80;;;7.43;;
71127;SDS011;59249;59.736;30.568;2024-02-23T03:16:33;18.88;;;6.38;;
71127;SDS011;59249;59.736;30.568;2024-02-23T03:19:04;20.45;;;7.72;;
71127;SDS011;59249;59.736;30.568;2024-02-23T03:21:35;17.77;;;6.93;;
71127;SDS011;59249;59.736;30.568;2024-02-23T03:24:09;18.02;;;7.13;;
71127;SDS011;59249;59.736;30.568;2024-02-23T03:26:41;14.07;;;5.60;;
71127;SDS011;59249;59.736;30.568;2024-02-23T03:29:11;16.42;;;6.35;;
71127;SDS011;59249;59.736;30.568;2024-02-23T03:31:47;18.42;;;6.57;;
71127;SDS011;59249;59.736;30.568;2024-02-23T03:34:16;16.23;;;5.43;;
71127;SDS011;59249;59.736;30.568;2024-02-23T03:36:45;11.32;;;4.43;;
71127;SDS011;59249;59.736;30.568;2024-02-23T03:39:16;15.33;;;5.90;;
71127;SDS011;59249;59.736;30.568;2024-02-23T03:41:47;14.45;;;5.32;;
71127;SDS011;59249;59.736;30.568;2024-02-23T03:44:25;13.77;;;5.00;;
71127;SDS011;59249;59.736;30.568;2024-02-23T03:47:00;15.40;;;6.13;;
71127;SDS011;59249;59.736;30.568;2024-02-23T03:49:31;15.88;;;6.45;;
71127;SDS011;59249;59.736;30.568;2024-02-23T03:52:03;16.53;;;6.17;;
71127;SDS011;59249;59.736;30.568;2024-02-23T03:54:36;18.92;;;6.20;;
71127;SDS011;59249;59.736;30.568;2024-02-23T03:57:07;16.05;;;5.43;;
71127;SDS011;59249;59.736;30.568;2024-02-23T03:59:37;12.00;;;4.70;;
71127;SDS011;59249;59.736;30.568;2024-02-23T04:02:08;13.93;;;4.72;;
71127;SDS011;59249;59.736;30.568;2024-02-23T04:04:37;8.90;;;3.17;;
71127;SDS011;59249;59.736;30.568;2024-02-23T04:07:06;12.40;;;5.00;;
71127;SDS011;59249;59.736;30.568;2024-02-23T04:09:36;11.23;;;4.57;;
71127;SDS011;59249;59.736;30.568;2024-02-23T04:12:05;14.02;;;5.90;;
71127;SDS011;59249;59.736;30.568;2024-02-23T04:14:43;16.67;;;5.47;;
71127;SDS011;59249;59.736;30.568;2024-02-23T04:17:12;14.03;;;5.50;;
71127;SDS011;59249;59.736;30.568;2024-02-23T04:19:41;14.32;;;5.03;;
71127;SDS011;59249;59.736;30.568;2024-02-23T04:22:10;14.40;;;5.38;;
71127;SDS011;59249;59.736;30.568;2024-02-23T04:24:41;10.77;;;3.97;;
71127;SDS011;59249;59.736;30.568;2024-02-23T04:27:10;13.75;;;5.18;;
71127;SDS011;59249;59.736;30.568;2024-02-23T04:29:39;13.47;;;5.40;;
71127;SDS011;59249;59.736;30.568;2024-02-23T04:32:14;9.52;;;3.42;;
71127;SDS011;59249;59.736;30.568;2024-02-23T04:34:44;13.60;;;5.15;;
71127;SDS011;59249;59.736;30.568;2024-02-23T04:37:19;13.23;;;4.78;;
71127;SDS011;59249;59.736;30.568;2024-02-23T04:39:52;13.27;;;4.38;;
71127;SDS011;59249;59.736;30.568;2024-02-23T04:42:21;12.27;;;4.23;;
71127;SDS011;59249;59.736;30.568;2024-02-23T04:44:53;11.27;;;4.55;;
71127;SDS011;59249;59.736;30.568;2024-02-23T04:47:22;11.25;;;3.58;;
71127;SDS011;59249;59.736;30.568;2024-02-23T04:49:53;13.57;;;4.68;;
71127;SDS011;59249;59.736;30.568;2024-02-23T04:52:22;10.23;;;3.63;;
71127;SDS011;59249;59.736;30.568;2024-02-23T04:54:51;13.00;;;3.30;;
71127;SDS011;59249;59.736;30.568;2024-02-23T04:57:22;14.77;;;4.88;;
71127;SDS011;59249;59.736;30.568;2024-02-23T04:59:51;14.82;;;5.65;;
71127;SDS011;59249;59.736;30.568;2024-02-23T05:02:21;13.45;;;4.82;;
71127;SDS011;59249;59.736;30.568;2024-02-23T05:04:51;14.35;;;4.90;;
71127;SDS011;59249;59.736;30.568;2024-02-23T05:07:20;11.67;;;5.00;;
71127;SDS011;59249;59.736;30.568;2024-02-23T05:09:50;13.15;;;5.35;;
71127;SDS011;59249;59.736;30.568;2024-02-23T05:12:21;7.78;;;3.05;;
71127;SDS011;59249;59.736;30.568;2024-02-23T05:14:51;10.95;;;4.80;;
71127;SDS011;59249;59.736;30.568;2024-02-23T05:17:23;12.50;;;5.07;;
71127;SDS011;59249;59.736;30.568;2024-02-23T05:19:53;10.33;;;4.30;;
71127;SDS011;59249;59.736;30.568;2024-02-23T05:22:22;14.73;;;4.90;;
71127;SDS011;59249;59.736;30.568;2024-02-23T05:24:54;8.68;;;3.72;;
71127;SDS011;59249;59.736;30.568;2024-02-23T05:27:23;9.32;;;3.92;;
71127;SDS011;59249;59.736;30.568;2024-02-23T05:30:04;6.50;;;2.50;;
71127;SDS011;59249;59.736;30.568;2024-02-23T05:32:39;12.50;;;4.20;;
71127;SDS011;59249;59.736;30.568;2024-02-23T05:35:09;11.90;;;4.65;;
71127;SDS011;59249;59.736;30.568;2024-02-23T05:37:43;13.25;;;4.65;;
71127;SDS011;59249;59.736;30.568;2024-02-23T05:40:24;7.78;;;3.05;;
71127;SDS011;59249;59.736;30.568;2024-02-23T05:42:53;8.90;;;4.18;;
71127;SDS011;59249;59.736;30.568;2024-02-23T05:45:23;12.00;;;4.70;;
71127;SDS011;59249;59.736;30.568;2024-02-23T05:47:55;10.05;;;4.45;;
71127;SDS011;59249;59.736;30.568;2024-02-23T05:50:35;10.45;;;4.10;;
71127;SDS011;59249;59.736;30.568;2024-02-23T05:53:10;12.10;;;4.35;;
71127;SDS011;59249;59.736;30.568;2024-02-23T05:55:50;7.47;;;3.08;;
71127;SDS011;59249;59.736;30.568;2024-02-23T05:58:20;13.30;;;4.80;;
71127;SDS011;59249;59.736;30.568;2024-02-23T06:00:55;10.32;;;4.75;;
71127;SDS011;59249;59.736;30.568;2024-02-23T06:03:24;8.65;;;3.47;;
71127;SDS011;59249;59.736;30.568;2024-02-23T06:05:54;9.05;;;3.40;;
71127;SDS011;59249;59.736;30.568;2024-02-23T06:08:29;11.05;;;3.80;;
71127;SDS011;59249;59.736;30.568;2024-02-23T06:11:00;10.77;;;3.72;;
71127;SDS011;59249;59.736;30.568;2024-02-23T06:13:31;10.93;;;4.00;;
71127;SDS011;59249;59.736;30.568;2024-02-23T06:16:02;8.98;;;3.28;;
71127;SDS011;59249;59.736;30.568;2024-02-23T06:18:33;8.30;;;3.60;;
71127;SDS011;59249;59.736;30.568;2024-02-23T06:21:10;8.63;;;2.92;;
71127;SDS011;59249;59.736;30.568;2024-02-23T06:23:46;10.40;;;3.28;;
71127;SDS011;59249;59.736;30.568;2024-02-23T06:26:21;10.00;;;3.60;;
71127;SDS011;59249;59.736;30.568;2024-02-23T06:28:50;8.35;;;3.05;;
71127;SDS011;59249;59.736;30.568;2024-02-23T06:31:19;10.25;;;3.53;;
71127;SDS011;59249;59.736;30.568;2024-02-23T06:33:48;8.57;;;3.17;;
71127;SDS011;59249;59.736;30.568;2024-02-23T06:36:18;11.00;;;4.40;;
71127;SDS011;59249;59.736;30.568;2024-02-23T06:38:48;7.53;;;2.60;;
71127;SDS011;59249;59.736;30.568;2024-02-23T06:41:17;11.50;;;3.55;;
71127;SDS011;59249;59.736;30.568;2024-02-23T06:43:48;8.80;;;3.08;;
71127;SDS011;59249;59.736;30.568;2024-02-23T06:46:19;12.18;;;4.43;;
71127;SDS011;59249;59.736;30.568;2024-02-23T06:48:49;10.07;;;4.20;;
71127;SDS011;59249;59.736;30.568;2024-02-23T06:51:20;9.07;;;3.27;;
71127;SDS011;59249;59.736;30.568;2024-02-23T06:53:51;10.32;;;4.30;;
71127;SDS011;59249;59.736;30.568;2024-02-23T06:56:24;10.55;;;3.60;;
71127;SDS011;59249;59.736;30.568;2024-02-23T06:58:56;13.65;;;4.07;;
71127;SDS011;59249;59.736;30.568;2024-02-23T07:01:26;9.50;;;3.75;;
71127;SDS011;59249;59.736;30.568;2024-02-23T07:03:57;9.50;;;3.10;;
71127;SDS011;59249;59.736;30.568;2024-02-23T07:06:31;8.98;;;3.30;;
71127;SDS011;59249;59.736;30.568;2024-02-23T07:09:06;11.65;;;3.88;;
71127;SDS011;59249;59.736;30.568;2024-02-23T07:11:44;10.43;;;3.97;;
71127;SDS011;59249;59.736;30.568;2024-02-23T07:14:17;9.75;;;3.47;;
71127;SDS011;59249;59.736;30.568;2024-02-23T07:16:48;9.97;;;3.63;;
71127;SDS011;59249;59.736;30.568;2024-02-23T07:19:24;11.40;;;4.05;;
71127;SDS011;59249;59.736;30.568;2024-02-23T07:22:08;9.05;;;3.85;;
71127;SDS011;59249;59.736;30.568;2024-02-23T07:24:42;8.35;;;3.50;;
71127;SDS011;59249;59.736;30.568;2024-02-23T07:27:19;8.85;;;3.80;;
71127;SDS011;59249;59.736;30.568;2024-02-23T07:30:08;10.17;;;3.67;;
71127;SDS011;59249;59.736;30.568;2024-02-23T07:32:48;9.15;;;3.28;;
71127;SDS011;59249;59.736;30.568;2024-02-23T07:35:19;9.75;;;3.33;;
71127;SDS011;59249;59.736;30.568;2024-02-23T07:37:55;12.70;;;3.95;;
71127;SDS011;59249;59.736;30.568;2024-02-23T07:40:28;10.52;;;3.83;;
71127;SDS011;59249;59.736;30.568;2024-02-23T07:43:02;10.80;;;3.58;;
71127;SDS011;59249;59.736;30.568;2024-02-23T07:45:34;8.87;;;3.43;;
71127;SDS011;59249;59.736;30.568;2024-02-23T07:48:06;10.25;;;4.30;;
71127;SDS011;59249;59.736;30.568;2024-02-23T07:50:40;9.13;;;3.92;;
71127;SDS011;59249;59.736;30.568;2024-02-23T07:53:11;10.45;;;4.28;;
71127;SDS011;59249;59.736;30.568;2024-02-23T07:55:49;6.75;;;2.15;;
71127;SDS011;59249;59.736;30.568;2024-02-23T07:58:19;11.77;;;3.80;;
71127;SDS011;59249;59.736;30.568;2024-02-23T08:00:49;11.05;;;3.53;;
71127;SDS011;59249;59.736;30.568;2024-02-23T08:03:21;7.93;;;3.10;;
71127;SDS011;59249;59.736;30.568;2024-02-23T08:05:53;8.13;;;2.80;;
71127;SDS011;59249;59.736;30.568;2024-02-23T08:08:30;10.95;;;3.42;;
71127;SDS011;59249;59.736;30.568;2024-02-23T08:11:02;9.97;;;3.70;;
71127;SDS011;59249;59.736;30.568;2024-02-23T08:13:31;10.48;;;4.80;;
71127;SDS011;59249;59.736;30.568;2024-02-23T08:16:02;10.93;;;4.18;;
71127;SDS011;59249;59.736;30.568;2024-02-23T08:18:32;11.40;;;4.07;;
71127;SDS011;59249;59.736;30.568;2024-02-23T08:21:04;7.70;;;2.53;;
71127;SDS011;59249;59.736;30.568;2024-02-23T08:23:34;8.87;;;3.50;;
71127;SDS011;59249;59.736;30.568;2024-02-23T08:26:04;10.30;;;4.05;;
71127;SDS011;59249;59.736;30.568;2024-02-23T08:28:34;11.10;;;4.07;;
71127;SDS011;59249;59.736;30.568;2024-02-23T08:31:05;11.68;;;4.20;;
71127;SDS011;59249;59.736;30.568;2024-02-23T08:33:38;8.77;;;3.45;;
71127;SDS011;59249;59.736;30.568;2024-02-23T08:36:10;10.63;;;3.43;;
71127;SDS011;59249;59.736;30.568;2024-02-23T08:38:44;10.55;;;3.28;;
71127;SDS011;59249;59.736;30.568;2024-02-23T08:41:14;10.25;;;3.80;;
71127;SDS011;59249;59.736;30.568;2024-02-23T08:43:46;10.43;;;3.90;;
71127;SDS011;59249;59.736;30.568;2024-02-23T08:46:16;10.90;;;4.60;;
71127;SDS011;59249;59.736;30.568;2024-02-23T08:48:50;11.30;;;4.03;;
71127;SDS011;59249;59.736;30.568;2024-02-23T08:51:25;10.57;;;4.05;;
71127;SDS011;59249;59.736;30.568;2024-02-23T08:53:54;9.55;;;4.07;;
71127;SDS011;59249;59.736;30.568;2024-02-23T08:56:31;11.90;;;4.07;;
71127;SDS011;59249;59.736;30.568;2024-02-23T08:59:10;9.82;;;4.82;;
71127;SDS011;59249;59.736;30.568;2024-02-23T09:01:41;9.43;;;4.30;;
71127;SDS011;59249;59.736;30.568;2024-02-23T09:04:11;10.38;;;4.20;;
71127;SDS011;59249;59.736;30.568;2024-02-23T09:06:40;14.25;;;4.28;;
71127;SDS011;59249;59.736;30.568;2024-02-23T09:09:13;8.82;;;3.67;;
71127;SDS011;59249;59.736;30.568;2024-02-23T09:11:43;8.50;;;3.28;;
71127;SDS011;59249;59.736;30.568;2024-02-23T09:14:13;9.97;;;4.23;;
71127;SDS011;59249;59.736;30.568;2024-02-23T09:16:44;6.10;;;2.33;;
71127;SDS011;59249;59.736;30.568;2024-02-23T09:19:18;9.32;;;3.95;;
71127;SDS011;59249;59.736;30.568;2024-02-23T09:21:47;9.95;;;3.80;;
71127;SDS011;59249;59.736;30.568;2024-02-23T09:24:17;10.10;;;3.60;;
71127;SDS011;59249;59.736;30.568;2024-02-23T09:26:56;8.37;;;3.03;;
71127;SDS011;59249;59.736;30.568;2024-02-23T09:29:26;8.93;;;3.95;;
71127;SDS011;59249;59.736;30.568;2024-02-23T09:31:57;12.07;;;4.47;;
71127;SDS011;59249;59.736;30.568;2024-02-23T09:34:29;8.20;;;3.55;;
71127;SDS011;59249;59.736;30.568;2024-02-23T09:36:59;11.68;;;4.82;;
71127;SDS011;59249;59.736;30.568;2024-02-23T09:39:28;9.90;;;4.33;;
71127;SDS011;59249;59.736;30.568;2024-02-23T09:41:58;9.38;;;3.88;;
71127;SDS011;59249;59.736;30.568;2024-02-23T09:44:32;7.65;;;3.03;;
71127;SDS011;59249;59.736;30.568;2024-02-23T09:47:03;7.65;;;3.63;;
71127;SDS011;59249;59.736;30.568;2024-02-23T09:49:37;9.55;;;3.97;;
71127;SDS011;59249;59.736;30.568;2024-02-23T09:52:11;9.97;;;4.73;;
71127;SDS011;59249;59.736;30.568;2024-02-23T09:54:41;9.50;;;3.65;;
71127;SDS011;59249;59.736;30.568;2024-02-23T09:57:10;10.65;;;3.75;;
71127;SDS011;59249;59.736;30.568;2024-02-23T09:59:40;7.57;;;3.83;;
71127;SDS011;59249;59.736;30.568;2024-02-23T10:02:13;8.40;;;2.92;;
71127;SDS011;59249;59.736;30.568;2024-02-23T10:04:44;9.77;;;3.53;;
71127;SDS011;59249;59.736;30.568;2024-02-23T10:07:17;11.27;;;3.20;;
71127;SDS011;59249;59.736;30.568;2024-02-23T10:09:49;9.27;;;3.80;;
71127;SDS011;59249;59.736;30.568;2024-02-23T10:12:22;8.68;;;4.00;;
71127;SDS011;59249;59.736;30.568;2024-02-23T10:14:52;9.80;;;4.00;;
71127;SDS011;59249;59.736;30.568;2024-02-23T10:17:25;8.00;;;3.37;;
71127;SDS011;59249;59.736;30.568;2024-02-23T10:19:57;8.10;;;4.07;;
71127;SDS011;59249;59.736;30.568;2024-02-23T10:22:32;10.23;;;4.88;;
71127;SDS011;59249;59.736;30.568;2024-02-23T10:25:07;11.65;;;4.85;;
71127;SDS011;59249;59.736;30.568;2024-02-23T10:27:40;10.38;;;5.25;;
71127;SDS011;59249;59.736;30.568;2024-02-23T10:30:10;10.67;;;4.10;;
71127;SDS011;59249;59.736;30.568;2024-02-23T10:32:44;11.00;;;4.40;;
71127;SDS011;59249;59.736;30.568;2024-02-23T10:35:15;12.73;;;4.40;;
71127;SDS011;59249;59.736;30.568;2024-02-23T10:37:45;10.45;;;3.92;;
71127;SDS011;59249;59.736;30.568;2024-02-23T10:40:18;9.90;;;3.83;;
71127;SDS011;59249;59.736;30.568;2024-02-23T10:42:49;9.63;;;3.87;;
71127;SDS011;59249;59.736;30.568;2024-02-23T10:45:22;7.22;;;2.72;;
71127;SDS011;59249;59.736;30.568;2024-02-23T10:47:53;9.88;;;3.83;;
71127;SDS011;59249;59.736;30.568;2024-02-23T10:50:24;11.70;;;4.10;;
71127;SDS011;59249;59.736;30.568;2024-02-23T10:52:54;9.63;;;3.63;;
71127;SDS011;59249;59.736;30.568;2024-02-23T10:55:29;9.63;;;4.10;;
71127;SDS011;59249;59.736;30.568;2024-02-23T10:58:02;9.98;;;3.85;;
71127;SDS011;59249;59.736;30.568;2024-02-23T11:00:31;9.85;;;4.18;;
71127;SDS011;59249;59.736;30.568;2024-02-23T11:03:02;15.65;;;6.82;;
71127;SDS011;59249;59.736;30.568;2024-02-23T11:05:33;12.27;;;4.82;;
71127;SDS011;59249;59.736;30.568;2024-02-23T11:08:02;6.53;;;1.93;;
71127;SDS011;59249;59.736;30.568;2024-02-23T11:10:41;9.80;;;4.85;;
71127;SDS011;59249;59.736;30.568;2024-02-23T11:13:11;8.75;;;3.88;;
71127;SDS011;59249;59.736;30.568;2024-02-23T11:15:42;9.70;;;3.90;;
71127;SDS011;59249;59.736;30.568;2024-02-23T11:18:22;11.00;;;4.18;;
71127;SDS011;59249;59.736;30.568;2024-02-23T11:20:56;10.30;;;4.53;;
71127;SDS011;59249;59.736;30.568;2024-02-23T11:23:38;11.90;;;4.72;;
71127;SDS011;59249;59.736;30.568;2024-02-23T11:26:10;8.75;;;4.03;;
71127;SDS011;59249;59.736;30.568;2024-02-23T11:28:42;9.90;;;3.85;;
71127;SDS011;59249;59.736;30.568;2024-02-23T11:31:13;9.27;;;3.92;;
71127;SDS011;59249;59.736;30.568;2024-02-23T11:33:51;8.87;;;4.10;;
71127;SDS011;59249;59.736;30.568;2024-02-23T11:36:34;11.60;;;3.83;;
71127;SDS011;59249;59.736;30.568;2024-02-23T11:39:06;11.25;;;4.40;;
71127;SDS011;59249;59.736;30.568;2024-02-23T11:41:57;10.52;;;3.70;;
71127;SDS011;59249;59.736;30.568;2024-02-23T11:44:27;7.38;;;3.50;;
71127;SDS011;59249;59.736;30.568;2024-02-23T11:46:58;8.13;;;3.37;;
71127;SDS011;59249;59.736;30.568;2024-02-23T11:49:32;9.32;;;4.00;;
71127;SDS011;59249;59.736;30.568;2024-02-23T11:52:02;10.95;;;4.32;;
71127;SDS011;59249;59.736;30.568;2024-02-23T11:54:33;12.35;;;4.20;;
71127;SDS011;59249;59.736;30.568;2024-02-23T11:57:08;9.68;;;3.92;;
71127;SDS011;59249;59.736;30.568;2024-02-23T11:59:40;8.80;;;2.83;;
71127;SDS011;59249;59.736;30.568;2024-02-23T12:02:14;8.68;;;3.20;;
71127;SDS011;59249;59.736;30.568;2024-02-23T12:04:49;11.40;;;4.57;;
71127;SDS011;59249;59.736;30.568;2024-02-23T12:07:18;12.68;;;5.45;;
71127;SDS011;59249;59.736;30.568;2024-02-23T12:09:48;10.07;;;3.97;;
71127;SDS011;59249;59.736;30.568;2024-02-23T12:12:19;13.17;;;4.40;;
71127;SDS011;59249;59.736;30.568;2024-02-23T12:14:50;10.02;;;4.10;;
71127;SDS011;59249;59.736;30.568;2024-02-23T12:17:19;12.20;;;4.28;;
71127;SDS011;59249;59.736;30.568;2024-02-23T12:19:58;10.15;;;3.90;;
71127;SDS011;59249;59.736;30.568;2024-02-23T12:22:34;9.90;;;3.53;;
71127;SDS011;59249;59.736;30.568;2024-02-23T12:25:10;12.13;;;4.93;;
71127;SDS011;59249;59.736;30.568;2024-02-23T12:27:53;10.20;;;4.13;;
71127;SDS011;59249;59.736;30.568;2024-02-23T12:30:24;11.25;;;4.45;;
71127;SDS011;59249;59.736;30.568;2024-02-23T12:33:04;10.38;;;3.92;;
71127;SDS011;59249;59.736;30.568;2024-02-23T12:35:44;10.88;;;4.47;;
71127;SDS011;59249;59.736;30.568;2024-02-23T12:38:18;12.07;;;4.70;;
71127;SDS011;59249;59.736;30.568;2024-02-23T12:40:49;10.43;;;4.22;;
71127;SDS011;59249;59.736;30.568;2024-02-23T12:43:21;10.43;;;4.45;;
71127;SDS011;59249;59.736;30.568;2024-02-23T12:45:53;10.10;;;4.95;;
71127;SDS011;59249;59.736;30.568;2024-02-23T12:48:23;10.23;;;3.75;;
71127;SDS011;59249;59.736;30.568;2024-02-23T12:50:57;10.47;;;4.40;;
71127;SDS011;59249;59.736;30.568;2024-02-23T12:53:32;10.02;;;4.75;;
71127;SDS011;59249;59.736;30.568;2024-02-23T12:56:04;9.75;;;3.78;;
71127;SDS011;59249;59.736;30.568;2024-02-23T12:58:35;9.05;;;4.10;;
71127;SDS011;59249;59.736;30.568;2024-02-23T13:01:08;13.10;;;4.15;;
71127;SDS011;59249;59.736;30.568;2024-02-23T13:03:52;9.43;;;3.37;;
71127;SDS011;59249;59.736;30.568;2024-02-23T13:06:33;12.10;;;5.22;;
71127;SDS011;59249;59.736;30.568;2024-02-23T13:09:08;13.57;;;5.47;;
71127;SDS011;59249;59.736;30.568;2024-02-23T13:11:39;13.02;;;5.72;;
71127;SDS011;59249;59.736;30.568;2024-02-23T13:14:15;11.90;;;4.88;;
71127;SDS011;59249;59.736;30.568;2024-02-23T13:16:44;8.60;;;3.73;;
71127;SDS011;59249;59.736;30.568;2024-02-23T13:19:13;9.57;;;3.47;;
71127;SDS011;59249;59.736;30.568;2024-02-23T13:21:44;12.77;;;5.18;;
71127;SDS011;59249;59.736;30.568;2024-02-23T13:24:13;10.45;;;3.88;;
71127;SDS011;59249;59.736;30.568;2024-02-23T13:26:42;14.40;;;5.55;;
71127;SDS011;59249;59.736;30.568;2024-02-23T13:29:11;12.73;;;4.60;;
71127;SDS011;59249;59.736;30.568;2024-02-23T13:31:40;16.35;;;6.35;;
71127;SDS011;59249;59.736;30.568;2024-02-23T13:34:10;11.88;;;4.63;;
71127;SDS011;59249;59.736;30.568;2024-02-23T13:36:44;14.75;;;6.03;;
71127;SDS011;59249;59.736;30.568;2024-02-23T13:39:14;14.70;;;5.18;;
71127;SDS011;59249;59.736;30.568;2024-02-23T13:41:43;14.07;;;5.00;;
71127;SDS011;59249;59.736;30.568;2024-02-23T13:44:12;12.93;;;5.07;;
71127;SDS011;59249;59.736;30.568;2024-02-23T13:46:45;13.05;;;5.43;;
71127;SDS011;59249;59.736;30.568;2024-02-23T13:49:15;11.63;;;5.20;;
71127;SDS011;59249;59.736;30.568;2024-02-23T13:51:47;11.48;;;4.50;;
71127;SDS011;59249;59.736;30.568;2024-02-23T13:54:20;15.77;;;6.27;;
71127;SDS011;59249;59.736;30.568;2024-02-23T13:57:01;12.93;;;5.22;;
71127;SDS011;59249;59.736;30.568;2024-02-23T13:59:31;15.10;;;6.53;;
71127;SDS011;59249;59.736;30.568;2024-02-23T14:02:00;8.73;;;3.67;;
71127;SDS011;59249;59.736;30.568;2024-02-23T14:04:31;12.70;;;4.10;;
71127;SDS011;59249;59.736;30.568;2024-02-23T14:07:06;13.07;;;5.67;;
71127;SDS011;59249;59.736;30.568;2024-02-23T14:09:39;12.55;;;5.72;;
71127;SDS011;59249;59.736;30.568;2024-02-23T14:12:24;13.95;;;6.50;;
71127;SDS011;59249;59.736;30.568;2024-02-23T14:14:54;15.57;;;6.00;;
71127;SDS011;59249;59.736;30.568;2024-02-23T14:17:25;14.90;;;5.85;;
71127;SDS011;59249;59.736;30.568;2024-02-23T14:19:54;16.03;;;6.37;;
71127;SDS011;59249;59.736;30.568;2024-02-23T14:22:26;14.95;;;5.32;;
71127;SDS011;59249;59.736;30.568;2024-02-23T14:24:55;14.38;;;5.63;;
71127;SDS011;59249;59.736;30.568;2024-02-23T14:27:34;14.43;;;6.50;;
71127;SDS011;59249;59.736;30.568;2024-02-23T14:30:04;15.05;;;5.97;;
71127;SDS011;59249;59.736;30.568;2024-02-23T14:32:37;14.50;;;5.93;;
71127;SDS011;59249;59.736;30.568;2024-02-23T14:35:08;15.55;;;6.57;;
71127;SDS011;59249;59.736;30.568;2024-02-23T14:37:39;15.05;;;5.50;;
71127;SDS011;59249;59.736;30.568;2024-02-23T14:40:09;13.60;;;5.80;;
71127;SDS011;59249;59.736;30.568;2024-02-23T14:42:40;12.38;;;5.63;;
71127;SDS011;59249;59.736;30.568;2024-02-23T14:45:18;14.93;;;5.50;;
71127;SDS011;59249;59.736;30.568;2024-02-23T14:47:48;13.90;;;5.82;;
71127;SDS011;59249;59.736;30.568;2024-02-23T14:50:20;12.90;;;4.00;;
71127;SDS011;59249;59.736;30.568;2024-02-23T14:52:51;12.02;;;5.07;;
71127;SDS011;59249;59.736;30.568;2024-02-23T14:55:21;15.27;;;6.70;;
71127;SDS011;59249;59.736;30.568;2024-02-23T14:57:50;16.03;;;6.03;;
71127;SDS011;59249;59.736;30.568;2024-02-23T15:00:19;12.77;;;5.75;;